Time;durP1;ratioP1;P1;durP2;ratioP2;P2;SDS_P1;SDS_P2;PMS_P1;PMS_P2;Temp;Humidity;BMP_temperature;BMP_pressure;BME280_temperature;BME280_humidity;BME280_pressure;Samples;Min_cycle;Max_cycle;Signal;HPM_P1;HPM_P2
2022/09/19 00:02:28;;;;;;;1.98;1.20;;;;;;;14.08;56.56;99204.18;1802509;79;22555;-77
2022/09/19 00:05:34;;;;;;;2.22;1.30;;;;;;;14.05;56.55;99202.70;1801171;79;21197;-77
2022/09/19 00:08:40;;;;;;;2.87;1.20;;;;;;;13.94;57.10;99203.99;1802610;79;21185;-77
2022/09/19 00:11:49;;;;;;;4.65;1.20;;;;;;;13.76;57.67;99207.52;1801037;79;21223;-78
2022/09/19 00:14:57;;;;;;;4.12;1.12;;;;;;;13.79;57.71;99204.33;1802652;79;22428;-78
2022/09/19 00:18:01;;;;;;;4.67;1.20;;;;;;;13.78;57.81;99207.62;1802542;79;21224;-78
2022/09/19 00:21:08;;;;;;;1.47;0.98;;;;;;;13.78;57.87;99206.75;1801031;79;21799;-78
2022/09/19 00:27:40;;;;;;;2.77;1.40;;;;;;;13.64;58.40;99210.66;1802534;79;21161;-78
2022/09/19 00:30:47;;;;;;;1.80;1.27;;;;;;;13.63;58.54;99218.07;1800980;79;21185;-78
2022/09/19 00:33:54;;;;;;;0.90;0.80;;;;;;;13.48;59.05;99218.39;1801065;79;21859;-78
2022/09/19 00:37:00;;;;;;;4.90;1.37;;;;;;;13.44;59.23;99217.14;1801100;79;21175;-78
2022/09/19 00:40:05;;;;;;;2.37;1.10;;;;;;;13.34;59.71;99220.08;1800945;79;21232;-78
2022/09/19 00:43:10;;;;;;;2.40;1.15;;;;;;;13.25;60.12;99223.61;1802599;79;21161;-78
2022/09/19 00:46:11;;;;;;;1.42;1.20;;;;;;;13.17;60.49;99223.82;1802781;79;21189;-78
2022/09/19 00:49:19;;;;;;;1.67;1.00;;;;;;;13.19;60.65;99235.45;1802539;79;21173;-78
2022/09/19 00:52:55;;;;;;;2.27;0.93;;;;;;;13.22;60.73;99237.27;1803103;79;21532;-78
2022/09/19 00:56:01;;;;;;;0.70;0.70;;;;;;;13.16;61.05;99236.71;1801594;79;21216;-78
2022/09/19 00:59:07;;;;;;;1.02;0.53;;;;;;;13.22;60.97;99239.14;1802656;79;21161;-78
2022/09/19 01:02:14;;;;;;;1.75;0.90;;;;;;;13.18;61.18;99240.63;1802580;79;21193;-78
2022/09/19 01:05:22;;;;;;;1.02;0.80;;;;;;;13.20;61.28;99239.87;1801322;79;21224;-78
2022/09/19 01:08:52;;;;;;;1.50;0.85;;;;;;;13.26;61.20;99241.76;1802592;79;21181;-78
2022/09/19 01:12:13;;;;;;;3.22;0.98;;;;;;;13.11;61.80;99243.92;1802691;79;21165;-80
2022/09/19 01:15:38;;;;;;;0.70;0.60;;;;;;;13.04;62.02;99245.34;1801369;79;21181;-80
2022/09/19 01:19:07;;;;;;;1.65;0.90;;;;;;;13.07;62.13;99251.75;1802561;79;21181;-80
2022/09/19 01:22:58;;;;;;;2.80;0.90;;;;;;;13.04;62.28;99251.67;1802673;79;21225;-78
2022/09/19 01:26:15;;;;;;;0.65;0.60;;;;;;;13.12;62.07;99253.84;1799697;79;21180;-77
2022/09/19 01:29:33;;;;;;;5.80;0.98;;;;;;;13.12;62.13;99260.70;1801135;79;21173;-78
2022/09/19 01:32:45;;;;;;;1.07;0.75;;;;;;;13.04;62.39;99255.79;1802870;79;21157;-78
2022/09/19 01:35:53;;;;;;;1.05;0.80;;;;;;;12.91;62.87;99255.84;1798655;79;21331;-78
2022/09/19 01:39:00;;;;;;;1.57;0.80;;;;;;;12.83;63.15;99253.86;1802829;79;21228;-78
2022/09/19 01:42:06;;;;;;;1.12;0.65;;;;;;;13.10;62.62;99258.19;1784382;79;21161;-78
2022/09/19 01:45:16;;;;;;;0.90;0.70;;;;;;;12.98;62.92;99255.27;1801557;79;21213;-77
2022/09/19 01:49:06;;;;;;;0.78;0.70;;;;;;;12.99;62.90;99248.74;1802778;79;21177;-77
2022/09/19 01:52:41;;;;;;;1.00;0.78;;;;;;;13.01;62.97;99257.59;1801580;79;21225;-77
2022/09/19 01:56:15;;;;;;;0.70;0.70;;;;;;;13.09;62.89;99257.05;1796899;79;21187;-78
2022/09/19 02:00:14;;;;;;;1.55;0.90;;;;;;;13.11;62.81;99259.86;1802630;79;21491;-78
2022/09/19 02:04:02;;;;;;;1.00;0.90;;;;;;;13.08;62.92;99261.70;1802667;79;21185;-78
2022/09/19 02:07:39;;;;;;;0.93;0.85;;;;;;;12.84;63.62;99262.39;1801779;79;21189;-78
2022/09/19 02:10:48;;;;;;;1.90;1.00;;;;;;;12.95;63.36;99265.33;1802760;79;21169;-78
2022/09/19 02:14:07;;;;;;;1.20;0.65;;;;;;;12.99;63.27;99267.95;1801048;79;22487;-77
2022/09/19 02:17:23;;;;;;;2.58;1.00;;;;;;;13.03;63.15;99273.33;1801251;79;21224;-78
2022/09/19 02:20:42;;;;;;;1.52;0.90;;;;;;;12.88;63.45;99271.89;1802598;79;21161;-78
2022/09/19 02:23:51;;;;;;;2.25;0.90;;;;;;;12.80;63.95;99277.10;1802525;79;21775;-78
2022/09/19 02:26:57;;;;;;;2.55;1.10;;;;;;;12.96;63.52;99279.36;1803441;79;21165;-77
2022/09/19 02:30:08;;;;;;;1.12;0.80;;;;;;;12.89;63.78;99282.67;1785651;79;21728;-77
2022/09/19 02:33:13;;;;;;;1.10;1.00;;;;;;;12.87;63.88;99288.89;1802629;79;21193;-77
2022/09/19 02:36:35;;;;;;;0.82;0.80;;;;;;;12.82;64.08;99284.58;1801806;79;21264;-77
2022/09/19 02:40:04;;;;;;;3.42;1.07;;;;;;;12.92;63.84;99288.23;1802496;79;21180;-77
2022/09/19 02:43:50;;;;;;;2.35;0.90;;;;;;;12.86;64.02;99289.11;1802721;79;21158;-77
2022/09/19 02:47:06;;;;;;;1.07;1.00;;;;;;;12.99;63.67;99293.19;1801210;79;21756;-77
2022/09/19 02:50:20;;;;;;;2.05;1.20;;;;;;;12.95;63.79;99298.27;1802205;79;21221;-77
2022/09/19 02:53:30;;;;;;;1.60;0.90;;;;;;;13.01;63.58;99300.66;1801155;79;21807;-77
2022/09/19 02:56:41;;;;;;;5.92;1.30;;;;;;;12.94;63.68;99304.82;1800147;79;21185;-78
2022/09/19 02:59:48;;;;;;;1.77;1.00;;;;;;;13.01;63.60;99308.37;1802804;79;21235;-77
2022/09/19 03:04:11;;;;;;;2.22;1.10;;;;;;;12.89;63.85;99310.61;1802607;79;21228;-77
2022/09/19 03:06:17;;;;;;;2.10;1.02;;;;;;;12.92;63.92;99318.43;1801732;79;21256;-78
2022/09/19 03:09:18;;;;;;;1.82;1.05;;;;;;;13.08;63.40;99325.34;1802525;79;21185;-78
2022/09/19 03:12:28;;;;;;;4.15;1.47;;;;;;;12.95;63.40;99332.58;1802588;79;21224;-78
2022/09/19 03:15:43;;;;;;;5.60;1.22;;;;;;;12.95;63.74;99333.95;1802109;79;21181;-78
2022/09/19 03:18:55;;;;;;;3.90;1.47;;;;;;;12.99;63.67;99339.33;1802425;79;21201;-78
2022/09/19 03:22:00;;;;;;;1.62;1.40;;;;;;;13.02;63.59;99338.03;1802563;79;21467;-78
2022/09/19 03:25:05;;;;;;;1.50;1.30;;;;;;;13.01;63.66;99350.91;1802787;79;21177;-78
2022/09/19 03:28:11;;;;;;;2.15;1.35;;;;;;;13.01;63.61;99353.66;1802664;79;21704;-78
2022/09/19 03:31:19;;;;;;;3.65;1.40;;;;;;;12.90;64.00;99358.45;1801184;79;21184;-78
2022/09/19 03:34:31;;;;;;;2.55;1.40;;;;;;;12.90;64.05;99355.70;1802534;79;21181;-78
2022/09/19 03:37:35;;;;;;;1.87;1.30;;;;;;;12.93;63.99;99364.02;1802383;79;21193;-77
2022/09/19 03:40:43;;;;;;;2.80;1.27;;;;;;;12.81;64.43;99368.50;1801034;79;21193;-78
2022/09/19 03:43:50;;;;;;;2.25;1.27;;;;;;;12.77;64.87;99374.94;1801096;79;21149;-78
2022/09/19 03:46:55;;;;;;;1.57;1.12;;;;;;;12.83;64.83;99389.70;1801619;79;21217;-78
2022/09/19 03:50:02;;;;;;;7.35;1.30;;;;;;;12.74;65.14;99393.19;1802328;79;21216;-77
2022/09/19 03:53:13;;;;;;;3.87;1.37;;;;;;;12.87;64.99;99406.06;1801752;79;21827;-78
2022/09/19 03:56:19;;;;;;;3.12;1.35;;;;;;;12.75;65.43;99404.47;1802089;79;21161;-78
2022/09/19 03:59:24;;;;;;;4.53;1.52;;;;;;;12.81;65.51;99407.76;1806161;79;21311;-78
2022/09/19 04:02:30;;;;;;;2.33;1.30;;;;;;;12.93;65.56;99413.42;1810976;79;21740;-78
2022/09/19 04:05:38;;;;;;;2.10;1.77;;;;;;;13.03;65.28;99411.95;1810303;79;21659;-78
2022/09/19 04:08:45;;;;;;;3.12;1.80;;;;;;;13.12;65.03;99408.42;1807743;79;21212;-78
2022/09/19 04:11:45;;;;;;;6.12;1.87;;;;;;;13.37;64.63;99410.00;1806879;79;21227;-78
2022/09/19 04:14:50;;;;;;;2.62;1.60;;;;;;;13.43;64.66;99417.89;1808767;79;21173;-78
2022/09/19 04:17:56;;;;;;;3.35;2.00;;;;;;;13.38;64.98;99425.41;1777547;79;21739;-78
2022/09/19 04:21:03;;;;;;;3.83;1.50;;;;;;;13.57;64.68;99444.27;1808224;79;21704;-79
2022/09/19 04:24:11;;;;;;;4.08;1.85;;;;;;;13.34;65.56;99449.41;1808038;79;21894;-79
2022/09/19 04:27:33;;;;;;;5.12;1.98;;;;;;;13.59;65.00;99451.74;1807282;79;21339;-79
2022/09/19 04:30:43;;;;;;;1.47;1.37;;;;;;;13.60;65.00;99453.95;1808842;79;21176;-78
2022/09/19 04:33:48;;;;;;;2.80;1.80;;;;;;;13.71;64.73;99456.05;1809346;79;22411;-79
2022/09/19 04:36:56;;;;;;;3.08;1.77;;;;;;;13.86;64.56;99453.02;1808002;79;21188;-78
2022/09/19 04:40:02;;;;;;;4.90;1.90;;;;;;;14.13;63.81;99455.95;1807097;79;21216;-78
2022/09/19 04:43:02;;;;;;;3.25;2.05;;;;;;;14.47;62.75;99460.17;1808409;79;21180;-78
2022/09/19 04:45:56;;;;;;;6.70;2.08;;;;;;;14.49;62.45;99460.84;1807880;79;21187;-78
2022/09/19 04:49:14;;;;;;;3.77;1.75;;;;;;;14.58;62.19;99469.65;1807961;79;21232;-78
2022/09/19 04:52:23;;;;;;;2.87;1.85;;;;;;;14.75;61.77;99469.42;1809029;79;21187;-78
2022/09/19 04:55:28;;;;;;;4.47;2.30;;;;;;;14.93;61.56;99482.41;1806533;79;21208;-79
2022/09/19 04:58:34;;;;;;;7.17;1.92;;;;;;;15.06;61.20;99490.56;1806943;79;21231;-79
2022/09/19 05:01:39;;;;;;;4.30;1.70;;;;;;;15.22;60.72;99494.65;1805622;79;21181;-78
2022/09/19 05:04:39;;;;;;;4.62;1.85;;;;;;;15.13;60.76;99502.05;1805913;79;21690;-78
2022/09/19 05:07:44;;;;;;;4.28;1.77;;;;;;;15.41;60.09;99507.09;1803724;79;21209;-78
2022/09/19 05:10:51;;;;;;;5.12;2.42;;;;;;;15.67;59.27;99517.04;1792811;79;21247;-79
2022/09/19 05:13:58;;;;;;;3.50;1.85;;;;;;;15.60;59.09;99518.44;1794726;78;21149;-80
2022/09/19 05:17:06;;;;;;;6.62;2.42;;;;;;;15.80;58.47;99532.03;1795788;78;21283;-80
2022/09/19 05:20:14;;;;;;;4.55;2.20;;;;;;;16.00;57.96;99531.82;1797079;78;21135;-80
2022/09/19 05:23:19;;;;;;;8.33;2.52;;;;;;;16.07;57.95;99530.65;1799630;78;21257;-80
2022/09/19 05:26:25;;;;;;;3.17;1.80;;;;;;;16.22;57.14;99539.06;1789829;79;21166;-79
2022/09/19 05:29:41;;;;;;;7.75;1.85;;;;;;;16.25;56.87;99544.13;1797546;78;22188;-79
2022/09/19 05:32:46;;;;;;;3.83;1.85;;;;;;;16.33;56.56;99535.00;1796538;78;21220;-78
2022/09/19 05:35:55;;;;;;;4.78;2.05;;;;;;;16.49;56.17;99546.47;1799331;79;21137;-78
2022/09/19 05:39:04;;;;;;;5.12;1.70;;;;;;;16.54;56.44;99546.60;1776213;79;21220;-78
2022/09/19 05:42:26;;;;;;;7.85;1.80;;;;;;;16.81;55.25;99552.63;1802277;78;21200;-79
2022/09/19 05:45:33;;;;;;;4.50;1.98;;;;;;;17.00;54.87;99556.16;1791287;79;21184;-80
2022/09/19 05:48:42;;;;;;;5.30;1.72;;;;;;;17.16;53.97;99558.77;1792272;79;21225;-77
2022/09/19 05:51:49;;;;;;;6.37;1.80;;;;;;;17.26;53.30;99570.07;1748068;81;21193;-78
2022/09/19 05:54:56;;;;;;;9.38;2.10;;;;;;;17.41;52.22;99564.95;1725055;82;21252;-78
2022/09/19 05:58:09;;;;;;;3.60;1.80;;;;;;;17.54;51.27;99568.84;1738856;82;21195;-78
2022/09/19 06:01:16;;;;;;;3.90;1.60;;;;;;;17.64;51.64;99577.91;1755611;79;21228;-79
2022/09/19 06:04:25;;;;;;;3.27;1.57;;;;;;;17.80;51.16;99581.94;1749505;81;21315;-78
2022/09/19 06:07:35;;;;;;;3.10;1.65;;;;;;;18.00;49.59;99579.63;1738438;81;21567;-79
2022/09/19 06:10:43;;;;;;;5.22;1.42;;;;;;;18.10;49.84;99599.22;1735247;81;21194;-80
2022/09/19 06:17:16;;;;;;;3.55;1.47;;;;;;;18.20;49.48;99612.98;1765635;79;21261;-78
2022/09/19 06:20:38;;;;;;;2.52;1.65;;;;;;;18.43;48.19;99624.01;1741528;81;21194;-78
2022/09/19 06:23:47;;;;;;;5.67;1.52;;;;;;;18.62;47.92;99617.21;1720749;82;22093;-78
2022/09/19 06:26:47;;;;;;;2.08;1.30;;;;;;;18.84;48.05;99616.58;1733717;81;21292;-79
2022/09/19 06:29:53;;;;;;;3.12;1.32;;;;;;;18.98;46.47;99608.27;1740212;81;21200;-79
2022/09/19 06:33:06;;;;;;;4.00;1.30;;;;;;;19.14;46.68;99618.52;1750546;81;21191;-78
2022/09/19 06:36:17;;;;;;;3.27;1.27;;;;;;;19.15;46.57;99608.31;1772291;80;21300;-78
2022/09/19 06:39:22;;;;;;;3.37;1.42;;;;;;;19.27;46.57;99603.52;1756433;81;21166;-78
2022/09/19 06:42:38;;;;;;;3.45;1.40;;;;;;;19.40;46.08;99620.39;1738202;80;21193;-78
2022/09/19 06:45:47;;;;;;;3.45;1.10;;;;;;;19.62;45.19;99624.13;1742124;82;21194;-79
2022/09/19 06:48:49;;;;;;;1.30;0.93;;;;;;;19.52;44.54;99627.23;1741175;81;21774;-78
2022/09/19 06:51:57;;;;;;;3.52;1.32;;;;;;;19.79;44.09;99626.88;1725970;81;21204;-78
2022/09/19 06:55:03;;;;;;;1.90;0.88;;;;;;;20.04;43.06;99637.56;1734359;81;21600;-78
2022/09/19 06:58:10;;;;;;;5.33;0.80;;;;;;;19.99;43.24;99638.84;1741552;81;21241;-78
2022/09/19 07:01:17;;;;;;;3.58;1.37;;;;;;;19.79;43.80;99641.31;1736579;81;21282;-78
2022/09/19 07:04:22;;;;;;;1.62;1.00;;;;;;;19.92;43.28;99643.74;1718267;82;21157;-78
2022/09/19 07:07:34;;;;;;;2.35;0.80;;;;;;;20.14;43.45;99655.75;1714129;82;21211;-78
2022/09/19 07:10:41;;;;;;;2.35;0.80;;;;;;;20.19;42.43;99656.38;1712310;83;21282;-77
2022/09/19 07:13:47;;;;;;;1.70;0.72;;;;;;;20.17;41.89;99662.72;1710329;81;21205;-78
2022/09/19 07:16:55;;;;;;;1.20;0.62;;;;;;;20.13;41.10;99665.15;1704625;82;21214;-78
2022/09/19 07:20:01;;;;;;;2.35;0.65;;;;;;;20.14;41.69;99673.80;1711310;82;21833;-78
2022/09/19 07:23:19;;;;;;;0.95;0.75;;;;;;;20.46;41.22;99668.12;1700762;83;21186;-79
2022/09/19 07:26:32;;;;;;;5.35;0.50;;;;;;;20.53;41.04;99666.04;1679660;83;21280;-79
2022/09/19 07:29:40;;;;;;;0.68;0.50;;;;;;;20.66;39.52;99673.45;1700483;84;21236;-79
2022/09/19 07:32:47;;;;;;;2.15;0.70;;;;;;;20.60;40.55;99671.68;1711822;82;21216;-79
2022/09/19 07:35:54;;;;;;;4.95;1.00;;;;;;;20.79;39.32;99668.59;1697544;82;22179;-79
2022/09/19 07:39:05;;;;;;;3.05;0.85;;;;;;;20.76;38.23;99677.46;1700617;83;21197;-79
2022/09/19 07:42:25;;;;;;;1.35;0.70;;;;;;;20.70;38.30;99665.97;1647694;84;21246;-79
2022/09/19 07:45:35;;;;;;;0.78;0.40;;;;;;;20.56;39.11;99673.32;1674986;83;21270;-79
2022/09/19 07:48:42;;;;;;;0.85;0.60;;;;;;;20.64;38.04;99678.41;1685400;83;22176;-78
2022/09/19 07:52:00;;;;;;;1.55;0.80;;;;;;;20.64;37.56;99681.73;1690616;83;21239;-78
2022/09/19 07:55:16;;;;;;;4.70;0.88;;;;;;;20.58;39.20;99683.61;1701820;81;21222;-78
2022/09/19 07:58:23;;;;;;;1.52;0.60;;;;;;;20.85;38.30;99680.08;1705323;82;21627;-78
2022/09/19 08:01:29;;;;;;;0.95;0.60;;;;;;;20.95;38.20;99680.20;1699143;82;21240;-79
2022/09/19 08:04:36;;;;;;;3.45;0.57;;;;;;;20.88;37.64;99690.66;1727881;81;21252;-79
2022/09/19 08:07:45;;;;;;;0.95;0.60;;;;;;;20.83;37.18;99695.60;1791877;79;21811;-78
2022/09/19 08:10:46;;;;;;;2.10;0.60;;;;;;;20.79;36.81;99681.93;1786286;78;21193;-79
2022/09/19 08:13:52;;;;;;;3.02;0.60;;;;;;;20.61;37.78;99697.00;1784290;79;22123;-78
2022/09/19 08:16:58;;;;;;;4.20;0.55;;;;;;;20.70;38.57;99692.36;1789846;78;21156;-78
2022/09/19 08:20:04;;;;;;;4.42;0.60;;;;;;;20.97;38.10;99695.22;1784862;78;21189;-79
2022/09/19 08:23:12;;;;;;;1.25;0.57;;;;;;;21.25;37.54;99696.94;1788868;79;22189;-79
2022/09/19 08:26:17;;;;;;;1.30;0.40;;;;;;;21.35;36.21;99685.39;1782066;79;21473;-80
2022/09/19 08:29:22;;;;;;;2.25;0.60;;;;;;;21.34;36.56;99691.23;1788077;78;21177;-80
2022/09/19 08:32:31;;;;;;;1.90;0.80;;;;;;;21.32;37.22;99685.09;1784910;79;21255;-78
2022/09/19 08:35:30;;;;;;;7.10;0.62;;;;;;;21.38;37.26;99692.39;1788968;78;21290;-78
2022/09/19 08:38:24;;;;;;;1.72;0.60;;;;;;;21.47;36.54;99683.02;1785391;78;21220;-79
2022/09/19 08:42:06;;;;;;;1.83;0.87;;;;;;;21.43;36.84;99684.92;1782671;78;22679;-79
2022/09/19 08:45:34;;;;;;;6.85;0.53;;;;;;;21.50;36.93;99677.78;1786560;78;22547;-79
2022/09/19 08:49:23;;;;;;;0.40;0.30;;;;;;;21.57;36.18;99688.13;1788171;78;21191;-78
2022/09/19 08:52:39;;;;;;;0.93;0.40;;;;;;;21.62;35.47;99692.90;1752297;81;21213;-78
2022/09/19 08:55:55;;;;;;;1.22;0.42;;;;;;;21.61;37.05;99680.94;1788040;78;21242;-79
2022/09/19 08:59:10;;;;;;;1.45;0.40;;;;;;;21.84;36.81;99685.31;1794915;78;22182;-79
2022/09/19 09:02:27;;;;;;;5.70;0.50;;;;;;;21.89;36.07;99683.13;1785832;78;21196;-78
2022/09/19 09:05:47;;;;;;;1.65;0.42;;;;;;;21.91;34.93;99693.43;1785498;78;21263;-78
2022/09/19 09:09:36;;;;;;;1.67;0.50;;;;;;;21.87;35.66;99703.41;1788133;78;21201;-78
2022/09/19 09:12:48;;;;;;;1.82;0.45;;;;;;;21.80;35.14;99681.37;1738978;79;21247;-79
2022/09/19 09:16:29;;;;;;;0.82;0.30;;;;;;;21.86;35.71;99686.44;1783278;78;21240;-77
2022/09/19 09:19:44;;;;;;;1.40;0.50;;;;;;;21.94;35.06;99685.39;1785865;79;21164;-78
2022/09/19 09:22:55;;;;;;;1.57;0.40;;;;;;;21.84;34.79;99698.40;1780907;79;21169;-79
2022/09/19 09:26:12;;;;;;;2.52;0.40;;;;;;;21.77;34.88;99699.16;1786332;78;21170;-79
2022/09/19 09:29:41;;;;;;;0.95;0.40;;;;;;;21.72;35.65;99706.07;1783271;78;21161;-79
2022/09/19 09:33:00;;;;;;;6.40;0.68;;;;;;;21.98;35.74;99703.80;1787626;78;21220;-79
2022/09/19 09:36:15;;;;;;;3.80;0.37;;;;;;;22.03;35.23;99701.62;1784629;78;21193;-78
2022/09/19 09:39:25;;;;;;;3.02;0.78;;;;;;;22.07;33.83;99712.52;1778631;78;22245;-79
2022/09/19 09:42:41;;;;;;;1.75;0.42;;;;;;;21.93;33.49;99710.73;1783674;79;21413;-78
2022/09/19 09:45:57;;;;;;;2.62;0.40;;;;;;;21.90;33.29;99709.30;1788618;79;21194;-78
2022/09/19 09:49:01;;;;;;;1.22;0.40;;;;;;;21.87;33.62;99710.38;1779193;79;21767;-78
2022/09/19 09:52:37;;;;;;;3.40;0.40;;;;;;;21.85;33.43;99712.59;1770238;79;21204;-78
2022/09/19 09:56:15;;;;;;;1.62;0.40;;;;;;;21.93;32.75;99716.30;1773416;79;21349;-78
2022/09/19 10:03:38;;;;;;;1.87;0.47;;;;;;;22.08;32.65;99712.23;1780208;78;21391;-78
2022/09/19 10:06:53;;;;;;;5.92;0.40;;;;;;;22.17;32.51;99711.23;1789839;78;21188;-79
2022/09/19 10:10:14;;;;;;;6.70;0.45;;;;;;;22.22;33.50;99714.05;1797305;78;21201;-79
2022/09/19 10:13:31;;;;;;;7.00;0.75;;;;;;;22.27;32.54;99711.85;1790477;78;21212;-78
2022/09/19 10:16:39;;;;;;;1.92;0.40;;;;;;;22.39;32.36;99727.80;1794147;78;21189;-78
2022/09/19 10:19:56;;;;;;;1.00;0.50;;;;;;;22.50;32.93;99713.41;1784939;78;21208;-78
2022/09/19 10:23:02;;;;;;;1.15;0.35;;;;;;;22.52;31.57;99727.33;1795589;79;21176;-78
2022/09/19 10:26:19;;;;;;;2.95;0.40;;;;;;;22.51;31.65;99720.09;1779469;78;21227;-78
2022/09/19 10:29:27;;;;;;;1.85;0.47;;;;;;;22.55;31.93;99714.27;1796090;78;21277;-78
2022/09/19 10:32:37;;;;;;;1.75;0.45;;;;;;;22.58;32.08;99724.85;1787074;79;21192;-78
2022/09/19 10:35:58;;;;;;;1.07;0.40;;;;;;;22.57;32.34;99720.39;1804973;78;21732;-78
2022/09/19 10:39:01;;;;;;;0.53;0.40;;;;;;;22.55;32.46;99724.02;1798328;78;22878;-78
2022/09/19 10:42:06;;;;;;;1.22;0.40;;;;;;;22.58;33.28;99729.59;1784101;79;21747;-78
2022/09/19 10:45:27;;;;;;;0.65;0.42;;;;;;;22.58;31.77;99732.38;1778151;79;21765;-78
2022/09/19 10:48:36;;;;;;;;;;;;;;;22.59;32.17;99721.54;1792058;78;21788;-79
2022/09/19 10:51:45;;;;;;;1.07;0.53;;;;;;;22.59;31.91;99725.16;1774529;78;20176;-79
2022/09/19 10:54:51;;;;;;;0.65;0.30;;;;;;;22.62;31.85;99709.27;1795940;78;21223;-79
2022/09/19 10:58:04;;;;;;;0.57;0.50;;;;;;;22.68;31.71;99723.55;1807044;78;21763;-79
2022/09/19 11:01:14;;;;;;;3.47;0.30;;;;;;;22.65;32.03;99726.86;1785298;79;21236;-79
2022/09/19 11:04:30;;;;;;;1.02;0.30;;;;;;;22.70;31.82;99716.30;1800578;78;21213;-79
2022/09/19 11:07:37;;;;;;;4.17;0.40;;;;;;;22.61;31.58;99732.69;1784954;78;21583;-79
2022/09/19 11:10:47;;;;;;;0.57;0.40;;;;;;;22.69;31.37;99724.38;1774300;79;21173;-79
2022/09/19 11:14:18;;;;;;;3.40;0.40;;;;;;;22.75;31.39;99737.78;1791870;79;21153;-79
2022/09/19 11:17:47;;;;;;;7.37;0.40;;;;;;;22.77;32.06;99731.38;1777099;79;21201;-79
2022/09/19 11:23:52;;;;;;;0.85;0.30;;;;;;;22.88;30.65;99737.31;1856026;76;22139;-79
2022/09/19 11:27:29;;;;;;;2.72;0.50;;;;;;;22.64;30.65;99726.58;1779526;79;21167;-78
2022/09/19 11:30:34;;;;;;;1.98;0.65;;;;;;;22.62;30.08;99734.36;1765358;78;22507;-78
2022/09/19 11:34:16;;;;;;;2.42;0.50;;;;;;;22.67;30.12;99744.14;1811060;79;21244;-77
2022/09/19 11:37:42;;;;;;;2.52;0.40;;;;;;;22.68;30.25;99743.06;1812487;79;21194;-78
2022/09/19 11:41:20;;;;;;;5.40;0.40;;;;;;;22.78;30.47;99749.25;1804989;78;21526;-78
2022/09/19 11:45:01;;;;;;;2.95;0.60;;;;;;;22.62;31.21;99739.93;1813685;77;21244;-77
2022/09/19 11:48:36;;;;;;;1.52;0.50;;;;;;;22.60;30.72;99735.20;1754007;80;21287;-78
2022/09/19 11:52:08;;;;;;;0.80;0.35;;;;;;;22.61;30.87;99745.78;1721591;80;21270;-78
2022/09/19 11:55:29;;;;;;;6.95;0.40;;;;;;;22.81;30.43;99743.66;1722830;80;21208;-78
2022/09/19 11:59:17;;;;;;;1.65;0.42;;;;;;;22.61;30.18;99748.02;1720923;82;21184;-78
2022/09/19 12:02:46;;;;;;;7.33;0.50;;;;;;;22.64;29.39;99753.62;1725660;81;21240;-78
2022/09/19 12:06:17;;;;;;;2.50;0.40;;;;;;;22.71;29.18;99752.25;1719003;81;21218;-78
2022/09/19 12:09:35;;;;;;;6.85;0.40;;;;;;;22.60;29.42;99744.95;1759062;80;21172;-78
2022/09/19 12:12:43;;;;;;;1.03;0.40;;;;;;;22.58;29.94;99737.95;1725427;81;21224;-79
2022/09/19 12:16:03;;;;;;;0.62;0.40;;;;;;;22.53;29.80;99744.33;1723762;83;21259;-78
2022/09/19 12:19:25;;;;;;;2.62;0.40;;;;;;;22.52;29.61;99743.22;1724647;83;21269;-78
2022/09/19 12:22:36;;;;;;;1.02;0.50;;;;;;;22.48;29.64;99739.28;1723225;83;21796;-78
2022/09/19 12:25:42;;;;;;;1.82;0.50;;;;;;;22.47;29.18;99732.05;1724160;83;21253;-78
2022/09/19 12:28:52;;;;;;;1.20;0.47;;;;;;;22.39;30.24;99729.19;1748118;81;21200;-78
2022/09/19 12:32:01;;;;;;;2.42;0.70;;;;;;;22.39;30.17;99734.20;1730050;81;21311;-78
2022/09/19 12:35:37;;;;;;;2.58;0.40;;;;;;;22.43;29.99;99742.87;1723768;83;21208;-79
2022/09/19 12:39:08;;;;;;;0.62;0.30;;;;;;;22.45;29.63;99756.00;1740929;82;21208;-78
2022/09/19 12:42:34;;;;;;;1.85;0.30;;;;;;;22.25;28.95;99760.84;1730471;82;21759;-78
2022/09/19 12:46:08;;;;;;;5.00;0.50;;;;;;;22.18;29.28;99763.87;1750713;80;21459;-79
2022/09/19 12:49:20;;;;;;;7.28;0.70;;;;;;;22.17;28.90;99760.80;1735385;82;21169;-78
2022/09/19 12:52:49;;;;;;;1.07;0.50;;;;;;;22.23;29.33;99765.86;1725436;81;21858;-78
2022/09/19 12:56:06;;;;;;;0.65;0.33;;;;;;;22.16;29.96;99764.70;1724766;83;21487;-80
2022/09/19 12:59:34;;;;;;;3.00;0.65;;;;;;;22.13;29.67;99765.78;1721477;83;22175;-80
2022/09/19 13:02:59;;;;;;;2.45;0.30;;;;;;;22.08;29.66;99777.68;1717716;82;21288;-79
2022/09/19 13:06:13;;;;;;;3.62;0.70;;;;;;;22.11;29.60;99779.98;1758373;81;21330;-80
2022/09/19 13:09:27;;;;;;;0.53;0.40;;;;;;;22.22;30.10;99780.89;1739093;82;21283;-78
2022/09/19 13:12:53;;;;;;;1.32;0.50;;;;;;;22.29;29.89;99782.05;1737336;82;21465;-78
2022/09/19 13:16:17;;;;;;;0.60;0.50;;;;;;;22.29;29.13;99775.92;1739497;82;21260;-78
2022/09/19 13:30:04;;;;;;;1.85;0.53;;;;;;;21.99;29.23;99782.05;1873544;76;22232;-78
2022/09/19 13:33:19;;;;;;;3.05;0.65;;;;;;;21.88;29.46;99786.69;1770576;80;21192;-78
2022/09/19 13:36:35;;;;;;;0.95;0.50;;;;;;;21.84;29.90;99781.91;1755519;81;21748;-78
2022/09/19 13:40:19;;;;;;;1.57;0.60;;;;;;;21.82;30.13;99793.28;1770190;80;21196;-79
2022/09/19 13:43:30;;;;;;;4.12;0.80;;;;;;;21.83;29.95;99794.13;1754723;82;21206;-79
2022/09/19 13:47:19;;;;;;;3.62;0.60;;;;;;;21.77;30.12;99789.06;1754865;82;21198;-78
2022/09/19 13:50:48;;;;;;;7.53;0.78;;;;;;;21.68;29.96;99781.73;1752577;82;21236;-79
2022/09/19 13:54:15;;;;;;;1.12;0.70;;;;;;;21.63;30.24;99796.98;1754376;82;21248;-79
2022/09/19 13:57:30;;;;;;;2.45;0.65;;;;;;;21.64;30.63;99793.13;1733723;82;21626;-79
2022/09/19 14:00:41;;;;;;;5.35;0.80;;;;;;;21.60;31.04;99796.14;1723018;83;21216;-79
2022/09/19 14:04:52;;;;;;;1.15;0.68;;;;;;;21.51;31.19;99801.88;1723277;83;21215;-79
2022/09/19 14:07:07;;;;;;;0.70;0.50;;;;;;;21.44;30.54;99794.27;1723666;83;21267;-79
2022/09/19 14:10:25;;;;;;;1.62;0.60;;;;;;;21.41;30.70;99801.76;1726105;82;21279;-78
2022/09/19 14:13:40;;;;;;;4.55;0.90;;;;;;;21.39;31.24;99803.94;1745391;82;21205;-80
2022/09/19 14:16:48;;;;;;;2.98;0.70;;;;;;;21.33;31.30;99802.20;1725540;83;21267;-78
2022/09/19 14:20:04;;;;;;;5.30;0.55;;;;;;;21.22;31.91;99811.47;1722666;83;21877;-78
2022/09/19 14:23:10;;;;;;;1.85;0.65;;;;;;;21.21;31.86;99816.75;1723980;83;21216;-78
2022/09/19 14:26:27;;;;;;;6.45;1.00;;;;;;;21.07;32.00;99811.55;1704326;83;21181;-78
2022/09/19 14:30:07;;;;;;;3.45;0.88;;;;;;;21.01;32.34;99816.77;1706378;83;21252;-78
2022/09/19 14:33:42;;;;;;;6.55;0.82;;;;;;;21.07;32.16;99819.06;1641653;87;21269;-78
2022/09/19 14:37:28;;;;;;;4.95;0.75;;;;;;;20.83;32.37;99829.02;1640984;84;21918;-78
2022/09/19 14:41:01;;;;;;;0.62;0.60;;;;;;;20.75;32.52;99835.03;1708837;84;21240;-78
2022/09/19 14:44:34;;;;;;;1.62;0.70;;;;;;;20.79;32.46;99838.12;1707736;83;21249;-78
2022/09/19 14:47:46;;;;;;;3.40;0.80;;;;;;;20.85;32.56;99846.84;1734648;82;21199;-78
2022/09/19 14:50:58;;;;;;;2.95;0.88;;;;;;;20.85;32.66;99853.24;1735487;82;21740;-78
2022/09/19 14:54:13;;;;;;;2.22;0.70;;;;;;;20.85;33.27;99857.41;1719098;83;21224;-78
2022/09/19 14:57:21;;;;;;;12.78;0.88;;;;;;;20.77;33.53;99865.33;1734904;82;21188;-78
2022/09/19 15:00:34;;;;;;;2.80;0.70;;;;;;;20.67;33.78;99866.85;1733819;82;21194;-78
2022/09/19 15:03:20;;;;;;;6.20;1.30;;;;;;;20.72;33.88;99867.48;1734999;82;21248;-78
2022/09/19 15:06:26;;;;;;;3.80;0.68;;;;;;;20.71;33.66;99870.53;1734843;82;22429;-78
2022/09/19 15:09:46;;;;;;;3.60;0.88;;;;;;;20.64;33.59;99868.73;1725141;82;21210;-78
2022/09/19 15:12:51;;;;;;;1.45;0.50;;;;;;;20.62;33.40;99876.50;1729839;83;21201;-78
2022/09/19 15:16:02;;;;;;;4.05;0.90;;;;;;;20.56;33.32;99872.48;1700354;84;21767;-78
2022/09/19 15:19:07;;;;;;;;;;;;;;;20.43;33.61;99882.81;1702523;84;21200;-79
2022/09/19 15:22:15;;;;;;;8.85;1.25;;;;;;;20.45;33.64;99883.94;1738281;82;20220;-78
2022/09/19 15:25:37;;;;;;;2.50;0.80;;;;;;;20.38;33.64;99882.73;1702610;83;21792;-79
2022/09/19 15:28:42;;;;;;;3.27;0.80;;;;;;;20.43;33.74;99891.70;1736523;81;21197;-78
2022/09/19 15:31:50;;;;;;;6.03;0.70;;;;;;;20.39;33.85;99899.69;1744657;81;21978;-78
2022/09/19 15:34:55;;;;;;;6.78;0.60;;;;;;;20.40;34.00;99893.03;1741836;82;21228;-78
2022/09/19 15:38:04;;;;;;;1.72;0.80;;;;;;;20.32;34.08;99904.54;1761403;81;21197;-78
2022/09/19 15:41:15;;;;;;;9.00;1.27;;;;;;;20.17;34.28;99895.39;1739463;81;21173;-78